Time;durP1;ratioP1;P1;durP2;ratioP2;P2;SDS_P1;SDS_P2;PMS_P1;PMS_P2;Temp;Humidity;BMP_temperature;BMP_pressure;BME280_temperature;BME280_humidity;BME280_pressure;Samples;Min_cycle;Max_cycle;Signal;HPM_P1;HPM_P2
2022/04/14 00:00:14;;;;;;;0.20;0.20;;;11.80;99.90;;;;;;5074619;28;20395;-74
2022/04/14 00:02:40;;;;;;;0.10;0.10;;;11.70;99.90;;;;;;5056403;28;20414;-74
2022/04/14 00:05:07;;;;;;;0.20;0.20;;;11.70;99.90;;;;;;5074236;28;20033;-74
2022/04/14 00:07:33;;;;;;;0.32;0.32;;;11.50;99.90;;;;;;5074543;28;20016;-74
2022/04/14 00:09:58;;;;;;;0.20;0.20;;;11.30;99.90;;;;;;5074394;28;20024;-75
2022/04/14 00:12:24;;;;;;;0.13;0.13;;;11.30;99.90;;;;;;5074358;28;20429;-75
2022/04/14 00:14:50;;;;;;;0.10;0.10;;;11.30;99.90;;;;;;5056496;28;20033;-74
2022/04/14 00:17:16;;;;;;;0.40;0.40;;;11.40;99.90;;;;;;5074201;28;20036;-75
2022/04/14 00:19:42;;;;;;;0.70;0.70;;;11.50;99.90;;;;;;5074301;28;20125;-74
2022/04/14 00:22:08;;;;;;;0.40;0.40;;;11.50;99.90;;;;;;5056101;28;20024;-74
2022/04/14 00:24:33;;;;;;;0.20;0.20;;;11.40;99.90;;;;;;5056170;28;20047;-74
2022/04/14 00:26:59;;;;;;;0.77;0.77;;;11.60;99.90;;;;;;5072847;28;20025;-74
2022/04/14 00:29:25;;;;;;;0.70;0.70;;;11.40;99.90;;;;;;5056138;28;20035;-74
2022/04/14 00:31:50;;;;;;;0.55;0.55;;;11.40;99.90;;;;;;5055851;28;20115;-74
2022/04/14 00:34:16;;;;;;;0.20;0.20;;;11.30;99.90;;;;;;5073903;28;20027;-74
2022/04/14 00:36:42;;;;;;;0.10;0.10;;;11.30;99.90;;;;;;5073710;28;20028;-74
2022/04/14 00:39:09;;;;;;;0.32;0.32;;;11.30;99.90;;;;;;5073823;28;20058;-74
2022/04/14 00:41:37;;;;;;;0.20;0.20;;;11.30;99.90;;;;;;5055947;28;20025;-74
2022/04/14 00:44:03;;;;;;;1.70;1.65;;;11.50;99.90;;;;;;5056111;28;20025;-74
2022/04/14 00:46:29;;;;;;;0.20;0.20;;;11.70;99.90;;;;;;5055614;28;20025;-74
2022/04/14 00:48:55;;;;;;;0.10;0.10;;;11.70;99.90;;;;;;5073608;28;20074;-74
2022/04/14 00:51:21;;;;;;;0.43;0.43;;;11.80;99.90;;;;;;5055767;28;20376;-74
2022/04/14 00:53:47;;;;;;;0.20;0.20;;;11.80;99.90;;;;;;5073526;28;20032;-75
2022/04/14 00:56:12;;;;;;;0.20;0.20;;;11.70;99.90;;;;;;5055480;28;20028;-74
2022/04/14 00:58:40;;;;;;;0.20;0.20;;;11.80;99.90;;;;;;5073417;28;20060;-75
2022/04/14 01:01:07;;;;;;;0.20;0.20;;;11.80;99.90;;;;;;5073291;28;20020;-74
2022/04/14 01:03:37;;;;;;;0.10;0.10;;;11.80;99.90;;;;;;5038781;28;20103;-75
2022/04/14 01:06:04;;;;;;;0.20;0.20;;;11.80;99.90;;;;;;5055216;28;20034;-74
2022/04/14 01:08:32;;;;;;;0.20;0.20;;;11.90;99.90;;;;;;5073328;28;20391;-74
2022/04/14 01:10:59;;;;;;;0.10;0.10;;;12.00;99.90;;;;;;5073194;28;20032;-74
2022/04/14 01:13:24;;;;;;;0.10;0.10;;;11.90;99.90;;;;;;5073230;28;20483;-75
2022/04/14 01:15:59;;;;;;;0.10;0.10;;;12.00;99.90;;;;;;5055020;28;20123;-74
2022/04/14 01:18:26;;;;;;;0.10;0.10;;;12.20;99.90;;;;;;5038604;28;20487;-75
2022/04/14 01:20:52;;;;;;;0.15;0.15;;;12.10;99.90;;;;;;5072991;28;20658;-74
2022/04/14 01:23:37;;;;;;;0.85;0.85;;;12.00;99.90;;;;;;5055101;28;20079;-74
2022/04/14 01:26:03;;;;;;;0.15;0.15;;;11.90;99.90;;;;;;5072757;28;20017;-74
2022/04/14 01:28:29;;;;;;;0.20;0.20;;;11.80;99.90;;;;;;5072989;28;20021;-74
2022/04/14 01:30:55;;;;;;;0.20;0.20;;;11.80;99.90;;;;;;5055158;28;20051;-74
2022/04/14 01:33:20;;;;;;;0.20;0.20;;;11.80;99.90;;;;;;5072789;28;20399;-74
2022/04/14 01:35:46;;;;;;;0.20;0.20;;;11.80;99.90;;;;;;5054486;28;20059;-75
2022/04/14 01:38:12;;;;;;;0.17;0.17;;;11.80;99.90;;;;;;5054619;28;20036;-75
2022/04/14 01:40:38;;;;;;;0.20;0.20;;;11.80;99.90;;;;;;5054943;28;20028;-75
2022/04/14 01:43:04;;;;;;;0.20;0.20;;;11.70;99.90;;;;;;5073245;28;20491;-72
2022/04/14 01:45:30;;;;;;;0.20;0.20;;;11.70;99.90;;;;;;5072869;28;20455;-73
2022/04/14 01:47:55;;;;;;;0.13;0.13;;;11.50;99.90;;;;;;5072425;28;20048;-72
2022/04/14 01:50:22;;;;;;;0.38;0.38;;;11.40;99.90;;;;;;5072570;28;20146;-72
2022/04/14 01:52:47;;;;;;;0.20;0.20;;;11.40;99.90;;;;;;5072320;28;20028;-72
2022/04/14 01:55:13;;;;;;;0.15;0.15;;;11.40;99.90;;;;;;5072257;28;20523;-72
2022/04/14 01:57:39;;;;;;;0.22;0.22;;;11.40;99.90;;;;;;5072299;28;20032;-71
2022/04/14 02:00:07;;;;;;;0.20;0.20;;;11.30;99.90;;;;;;5054592;28;20020;-72
2022/04/14 02:02:33;;;;;;;0.20;0.20;;;11.10;99.90;;;;;;5072293;28;20391;-71
2022/04/14 02:04:59;;;;;;;0.57;0.57;;;11.00;99.90;;;;;;5054355;28;20103;-71
2022/04/14 02:07:24;;;;;;;0.30;0.30;;;11.10;99.90;;;;;;5072040;28;20052;-72
2022/04/14 02:09:50;;;;;;;0.10;0.10;;;11.20;99.90;;;;;;5072187;28;20042;-72
2022/04/14 02:12:16;;;;;;;0.10;0.10;;;11.40;99.90;;;;;;5072237;28;20020;-72
2022/04/14 02:14:43;;;;;;;1.58;0.63;;;11.40;99.90;;;;;;5072158;28;20024;-72
2022/04/14 02:17:08;;;;;;;0.40;0.40;;;11.50;99.90;;;;;;5071927;28;20048;-72
2022/04/14 02:19:34;;;;;;;1.25;0.93;;;11.70;99.90;;;;;;5072094;28;20063;-72
2022/04/14 02:22:00;;;;;;;1.35;0.88;;;11.80;99.90;;;;;;5071983;28;20028;-72
2022/04/14 02:24:26;;;;;;;0.20;0.20;;;11.80;99.90;;;;;;5054201;28;20119;-72
2022/04/14 02:26:53;;;;;;;0.50;0.50;;;11.90;99.90;;;;;;5071814;28;20050;-72
2022/04/14 02:29:19;;;;;;;0.20;0.20;;;11.90;99.90;;;;;;5071816;28;20399;-72
2022/04/14 02:31:45;;;;;;;0.30;0.30;;;11.90;99.90;;;;;;5071941;28;20021;-72
2022/04/14 02:34:10;;;;;;;0.25;0.25;;;11.90;99.90;;;;;;5071947;28;20498;-71
2022/04/14 02:36:36;;;;;;;0.50;0.50;;;11.90;99.90;;;;;;5071879;28;20107;-72
2022/04/14 02:39:02;;;;;;;4.05;0.93;;;11.90;99.90;;;;;;5071955;28;20032;-72
2022/04/14 02:41:28;;;;;;;0.20;0.20;;;11.90;99.90;;;;;;5071823;28;20115;-72
2022/04/14 02:43:54;;;;;;;0.25;0.25;;;11.80;99.90;;;;;;5071905;28;20124;-72
2022/04/14 02:46:20;;;;;;;0.10;0.10;;;11.80;99.90;;;;;;5071778;28;20013;-72
2022/04/14 02:48:45;;;;;;;0.10;0.10;;;11.80;99.90;;;;;;5071884;28;20037;-72
2022/04/14 02:51:11;;;;;;;5.03;2.45;;;11.70;99.90;;;;;;5074551;28;20027;-72
2022/04/14 02:53:37;;;;;;;0.20;0.20;;;11.70;99.90;;;;;;5075883;28;20082;-72
2022/04/14 02:56:05;;;;;;;0.30;0.30;;;11.60;99.90;;;;;;5057805;28;20021;-72
2022/04/14 02:58:31;;;;;;;0.25;0.25;;;11.40;99.90;;;;;;5075858;28;20447;-72
2022/04/14 03:00:57;;;;;;;0.20;0.20;;;11.20;99.90;;;;;;5075749;28;20456;-72
2022/04/14 03:03:24;;;;;;;0.20;0.20;;;11.10;99.90;;;;;;5075793;28;20020;-72
2022/04/14 03:05:52;;;;;;;0.20;0.20;;;11.00;99.90;;;;;;5075852;28;20033;-72
2022/04/14 03:08:19;;;;;;;0.20;0.20;;;11.10;99.90;;;;;;5075560;28;20029;-72
2022/04/14 03:10:44;;;;;;;0.40;0.40;;;11.20;99.90;;;;;;5057713;28;20037;-72
2022/04/14 03:13:10;;;;;;;0.30;0.30;;;11.00;99.90;;;;;;5075402;28;20017;-72
2022/04/14 03:15:36;;;;;;;1.10;0.73;;;11.00;99.90;;;;;;5075261;28;20021;-72
2022/04/14 03:18:02;;;;;;;0.60;0.30;;;10.90;99.90;;;;;;5075486;28;20028;-72
2022/04/14 03:20:28;;;;;;;0.17;0.17;;;11.00;99.90;;;;;;5075439;28;20028;-72
2022/04/14 03:22:56;;;;;;;0.20;0.20;;;11.10;99.90;;;;;;5075296;28;20017;-72
2022/04/14 03:25:21;;;;;;;0.10;0.10;;;11.10;99.90;;;;;;5074994;28;20032;-72
2022/04/14 03:27:47;;;;;;;0.20;0.20;;;11.20;99.90;;;;;;5057132;28;20032;-72
2022/04/14 03:30:13;;;;;;;1.42;1.40;;;11.10;99.90;;;;;;5075083;28;20029;-72
2022/04/14 03:32:43;;;;;;;0.20;0.20;;;11.10;99.90;;;;;;5057207;28;20017;-72
2022/04/14 03:35:11;;;;;;;0.20;0.20;;;11.00;99.90;;;;;;5057223;28;20391;-72
2022/04/14 03:37:36;;;;;;;0.25;0.25;;;10.80;99.90;;;;;;5074886;28;20028;-72
2022/04/14 03:40:04;;;;;;;0.10;0.10;;;10.70;99.90;;;;;;5057061;28;20025;-72
2022/04/14 03:42:30;;;;;;;1.75;1.55;;;10.80;99.90;;;;;;5074974;28;20086;-71
2022/04/14 03:44:57;;;;;;;0.10;0.10;;;10.90;99.90;;;;;;5074835;28;20028;-72
2022/04/14 03:47:23;;;;;;;0.20;0.20;;;10.80;99.90;;;;;;5074684;28;20040;-72
2022/04/14 03:49:49;;;;;;;0.30;0.30;;;10.90;99.90;;;;;;5056951;28;20493;-72
2022/04/14 03:52:15;;;;;;;0.20;0.20;;;10.90;99.90;;;;;;5074620;28;20388;-72
2022/04/14 03:54:41;;;;;;;0.10;0.10;;;11.00;99.90;;;;;;5074857;28;20028;-72
2022/04/14 03:57:07;;;;;;;0.10;0.10;;;11.10;99.90;;;;;;5074512;28;20025;-72
2022/04/14 03:59:32;;;;;;;0.20;0.20;;;11.10;99.90;;;;;;5056761;28;20025;-72
2022/04/14 04:01:58;;;;;;;0.75;0.30;;;11.20;99.90;;;;;;5074688;28;20111;-72
2022/04/14 04:04:24;;;;;;;0.20;0.20;;;11.20;99.90;;;;;;5056483;28;20027;-72
2022/04/14 04:06:49;;;;;;;0.20;0.20;;;11.30;99.90;;;;;;5074426;28;20021;-72
2022/04/14 04:09:15;;;;;;;0.20;0.20;;;11.20;99.90;;;;;;5074559;28;20357;-72
2022/04/14 04:11:41;;;;;;;0.20;0.20;;;11.20;99.90;;;;;;5074741;28;20025;-72
2022/04/14 04:14:07;;;;;;;6.93;6.50;;;11.10;99.90;;;;;;5074402;28;20586;-72
2022/04/14 04:16:33;;;;;;;1.25;1.15;;;11.10;99.90;;;;;;5074132;28;20024;-71
2022/04/14 04:18:59;;;;;;;0.20;0.20;;;11.10;99.90;;;;;;5074229;28;20020;-72
2022/04/14 04:21:29;;;;;;;1.33;0.77;;;11.00;99.90;;;;;;5074262;28;20028;-71
2022/04/14 04:23:55;;;;;;;0.20;0.20;;;11.00;99.90;;;;;;5074162;28;20025;-72
2022/04/14 04:26:21;;;;;;;0.20;0.20;;;11.10;99.90;;;;;;5074023;28;20071;-71
2022/04/14 04:28:47;;;;;;;0.10;0.10;;;11.00;99.90;;;;;;5074159;28;20021;-72
2022/04/14 04:31:12;;;;;;;0.20;0.20;;;10.80;99.90;;;;;;5056012;28;20052;-72
2022/04/14 04:33:38;;;;;;;3.10;0.65;;;10.70;99.90;;;;;;5074029;28;20017;-71
2022/04/14 04:36:04;;;;;;;0.15;0.15;;;10.70;99.90;;;;;;5056220;28;20029;-72
2022/04/14 04:38:30;;;;;;;0.20;0.20;;;10.60;99.90;;;;;;5074805;28;20024;-74
2022/04/14 04:40:58;;;;;;;0.20;0.20;;;10.60;99.90;;;;;;5039511;28;20501;-73
2022/04/14 04:43:25;;;;;;;0.63;0.55;;;10.60;99.90;;;;;;5074106;28;20062;-73
2022/04/14 04:45:51;;;;;;;0.40;0.40;;;10.80;99.90;;;;;;5073509;28;20029;-73
2022/04/14 04:48:16;;;;;;;0.30;0.30;;;11.10;99.90;;;;;;5073683;28;20036;-73
2022/04/14 04:50:42;;;;;;;0.15;0.15;;;11.10;99.90;;;;;;5073737;28;20472;-73
2022/04/14 04:53:08;;;;;;;0.20;0.20;;;11.20;99.90;;;;;;5078395;22;20420;-77
2022/04/14 04:55:34;;;;;;;0.30;0.30;;;11.30;99.90;;;;;;5053248;28;20029;-77
2022/04/14 04:57:59;;;;;;;0.13;0.13;;;11.40;99.90;;;;;;5035567;28;20040;-77
2022/04/14 05:00:25;;;;;;;0.10;0.10;;;11.50;99.90;;;;;;5053480;28;20392;-77
2022/04/14 05:02:51;;;;;;;0.30;0.30;;;11.60;99.90;;;;;;5035425;28;20025;-77
2022/04/14 05:05:18;;;;;;;0.57;0.57;;;11.60;99.90;;;;;;5053071;28;20056;-77
2022/04/14 05:07:44;;;;;;;0.40;0.30;;;11.60;99.90;;;;;;5053171;28;20074;-77
2022/04/14 05:10:09;;;;;;;2.08;1.27;;;11.60;99.90;;;;;;5053133;28;20025;-77
2022/04/14 05:12:35;;;;;;;0.35;0.35;;;11.70;99.90;;;;;;5034654;28;20032;-77
2022/04/14 05:15:01;;;;;;;17.23;1.27;;;11.80;99.90;;;;;;5035302;28;20025;-77
2022/04/14 05:17:27;;;;;;;0.30;0.30;;;11.90;99.90;;;;;;5034800;28;20025;-77
2022/04/14 05:19:52;;;;;;;0.32;0.32;;;11.90;99.90;;;;;;5035321;28;20021;-77
2022/04/14 05:22:18;;;;;;;0.10;0.10;;;12.00;99.90;;;;;;5035294;28;20091;-77
2022/04/14 05:24:44;;;;;;;0.85;0.40;;;12.10;99.90;;;;;;5034920;28;20091;-77
2022/04/14 05:27:09;;;;;;;0.20;0.20;;;12.20;99.90;;;;;;5052428;28;20029;-77
2022/04/14 05:29:36;;;;;;;0.20;0.20;;;12.30;99.90;;;;;;5017541;28;20036;-77
2022/04/14 05:32:02;;;;;;;0.20;0.20;;;12.40;99.90;;;;;;5049544;28;20021;-77
2022/04/14 05:34:28;;;;;;;0.57;0.57;;;12.60;99.90;;;;;;5052252;28;20025;-77
2022/04/14 05:36:53;;;;;;;0.20;0.20;;;12.70;99.90;;;;;;5046017;28;20091;-76
2022/04/14 05:39:19;;;;;;;0.50;0.50;;;12.70;99.90;;;;;;5033508;28;20120;-77
2022/04/14 05:41:45;;;;;;;0.20;0.20;;;12.70;99.90;;;;;;5047930;28;20056;-77
2022/04/14 05:44:11;;;;;;;0.20;0.20;;;12.70;99.90;;;;;;5052211;28;20108;-77
2022/04/14 05:46:36;;;;;;;0.20;0.20;;;12.80;99.90;;;;;;5046961;28;20473;-77
2022/04/14 05:49:03;;;;;;;1.38;0.57;;;12.90;99.90;;;;;;5054546;28;20380;-77
2022/04/14 05:51:28;;;;;;;0.20;0.20;;;13.00;99.90;;;;;;5027918;28;20116;-77
2022/04/14 05:53:54;;;;;;;0.20;0.20;;;13.10;99.90;;;;;;5034483;28;20112;-77
2022/04/14 05:56:20;;;;;;;0.20;0.20;;;13.30;99.90;;;;;;5033520;28;20025;-77
2022/04/14 05:58:46;;;;;;;0.20;0.20;;;13.40;99.90;;;;;;5052265;28;20052;-77
2022/04/14 06:01:12;;;;;;;0.40;0.40;;;13.40;99.90;;;;;;5052262;28;20100;-77
2022/04/14 06:03:40;;;;;;;0.50;0.50;;;13.50;99.90;;;;;;5017838;28;20025;-77
2022/04/14 06:06:07;;;;;;;0.20;0.20;;;13.50;99.90;;;;;;5050312;28;20012;-77
2022/04/14 06:08:33;;;;;;;0.20;0.20;;;13.60;99.90;;;;;;5052141;28;20044;-77
2022/04/14 06:10:58;;;;;;;0.30;0.30;;;13.70;99.90;;;;;;5051842;28;20025;-77
2022/04/14 06:13:24;;;;;;;0.20;0.20;;;13.70;99.90;;;;;;5033931;28;20032;-77
2022/04/14 06:15:50;;;;;;;0.20;0.20;;;13.70;99.90;;;;;;5051632;28;20049;-77
2022/04/14 06:18:16;;;;;;;0.10;0.10;;;13.80;99.90;;;;;;5052002;28;20021;-77
2022/04/14 06:20:41;;;;;;;7.32;0.50;;;13.80;99.90;;;;;;5034147;28;20541;-77
2022/04/14 06:23:08;;;;;;;0.15;0.15;;;13.90;99.90;;;;;;5050665;28;20024;-77
2022/04/14 06:25:34;;;;;;;0.10;0.10;;;13.90;99.90;;;;;;5049236;28;20108;-77
2022/04/14 06:28:00;;;;;;;0.82;0.80;;;14.00;99.90;;;;;;5051837;28;20476;-77
2022/04/14 06:30:26;;;;;;;0.20;0.20;;;14.10;99.80;;;;;;5050593;28;20053;-77
2022/04/14 06:32:56;;;;;;;0.20;0.20;;;14.10;99.50;;;;;;5051305;28;20091;-77
2022/04/14 06:35:21;;;;;;;0.30;0.30;;;14.20;99.00;;;;;;5033911;28;20078;-77
2022/04/14 06:37:47;;;;;;;0.10;0.10;;;14.30;99.10;;;;;;5033932;28;20029;-77
2022/04/14 06:40:13;;;;;;;0.77;0.75;;;14.30;98.80;;;;;;5052117;28;20032;-77
2022/04/14 06:42:38;;;;;;;0.20;0.20;;;14.30;98.80;;;;;;5033807;28;20033;-77
2022/04/14 06:45:05;;;;;;;0.77;0.77;;;14.40;98.50;;;;;;5033843;28;20428;-77
2022/04/14 06:47:31;;;;;;;0.60;0.60;;;14.40;98.10;;;;;;5017287;28;20096;-77
2022/04/14 06:49:56;;;;;;;0.20;0.20;;;14.50;98.00;;;;;;5017361;28;20017;-77
2022/04/14 06:52:22;;;;;;;0.30;0.30;;;14.60;97.60;;;;;;5051459;28;20446;-77
2022/04/14 06:54:48;;;;;;;0.25;0.25;;;14.70;96.90;;;;;;5050202;28;20051;-77
2022/04/14 06:57:14;;;;;;;37.60;8.70;;;14.70;96.60;;;;;;5052553;28;20033;-77
2022/04/14 06:59:40;;;;;;;0.20;0.20;;;14.80;96.30;;;;;;5033785;28;20029;-77
2022/04/14 07:02:07;;;;;;;0.75;0.75;;;14.80;96.30;;;;;;5027032;28;20098;-77
2022/04/14 07:04:33;;;;;;;0.30;0.30;;;14.90;96.20;;;;;;5037579;28;20033;-77
2022/04/14 07:06:59;;;;;;;0.10;0.10;;;15.00;96.00;;;;;;5012947;28;20082;-77
2022/04/14 07:09:24;;;;;;;0.10;0.10;;;15.00;95.40;;;;;;5029851;28;20032;-77
2022/04/14 07:11:50;;;;;;;0.40;0.40;;;15.00;95.90;;;;;;5030632;28;20029;-78
2022/04/14 07:14:18;;;;;;;0.82;0.82;;;15.10;95.60;;;;;;5039343;28;20036;-78
2022/04/14 07:16:44;;;;;;;8.00;2.42;;;15.10;95.40;;;;;;5012128;28;20102;-77
2022/04/14 07:19:10;;;;;;;0.10;0.10;;;15.10;95.30;;;;;;5030072;28;20052;-77
2022/04/14 07:21:36;;;;;;;16.75;3.47;;;15.20;95.20;;;;;;5039886;28;20127;-77
2022/04/14 07:24:01;;;;;;;1.25;1.15;;;15.30;94.80;;;;;;5039471;28;20079;-77
2022/04/14 07:26:27;;;;;;;1.13;0.65;;;15.40;94.80;;;;;;5014255;28;20047;-77
2022/04/14 07:28:53;;;;;;;0.10;0.10;;;15.40;94.70;;;;;;5039620;28;20027;-78
2022/04/14 07:31:19;;;;;;;0.30;0.30;;;15.50;94.40;;;;;;5028560;28;20099;-77
2022/04/14 07:33:44;;;;;;;4.10;2.88;;;15.60;94.30;;;;;;5039692;28;20033;-77
2022/04/14 07:36:11;;;;;;;4.32;2.03;;;15.60;94.00;;;;;;5030216;28;20029;-77
2022/04/14 07:38:37;;;;;;;0.45;0.35;;;15.60;93.60;;;;;;5033362;28;20027;-77
2022/04/14 07:41:05;;;;;;;2.97;1.73;;;15.70;93.80;;;;;;5045342;28;20770;-77
2022/04/14 07:43:32;;;;;;;2.35;1.48;;;16.00;93.30;;;;;;5043498;28;20021;-77
2022/04/14 07:45:58;;;;;;;2.38;1.35;;;16.00;92.80;;;;;;5033198;28;20033;-77
2022/04/14 07:48:23;;;;;;;0.10;0.10;;;16.00;92.80;;;;;;5033606;28;20025;-78
2022/04/14 07:50:50;;;;;;;0.20;0.20;;;16.10;92.90;;;;;;5043164;28;20033;-77
2022/04/14 07:53:16;;;;;;;0.50;0.50;;;16.40;92.70;;;;;;5042584;28;20202;-77
2022/04/14 07:55:42;;;;;;;2.55;1.25;;;16.50;92.30;;;;;;5031982;28;20163;-75
2022/04/14 07:58:08;;;;;;;0.10;0.10;;;16.70;92.20;;;;;;5042653;28;20037;-75
2022/04/14 08:00:35;;;;;;;1.05;0.90;;;16.90;92.00;;;;;;5032141;28;20083;-74
2022/04/14 08:03:02;;;;;;;0.85;0.40;;;16.70;91.10;;;;;;5041968;28;20029;-75
2022/04/14 08:05:33;;;;;;;1.30;0.77;;;16.60;91.40;;;;;;5042295;28;20040;-75
2022/04/14 08:08:00;;;;;;;0.10;0.10;;;16.80;91.50;;;;;;5033533;28;20025;-75
2022/04/14 08:10:26;;;;;;;0.50;0.50;;;17.00;91.50;;;;;;5042362;28;20013;-75
2022/04/14 08:12:53;;;;;;;5.80;3.03;;;17.20;90.80;;;;;;5033054;28;20025;-75
2022/04/14 08:15:19;;;;;;;0.10;0.10;;;17.50;90.00;;;;;;5042745;28;20048;-75
2022/04/14 08:17:45;;;;;;;7.25;2.10;;;17.60;89.70;;;;;;5042759;28;20033;-74
2022/04/14 08:20:13;;;;;;;0.28;0.28;;;17.90;89.30;;;;;;5042741;28;20040;-76
2022/04/14 08:22:50;;;;;;;0.10;0.10;;;18.10;88.80;;;;;;5042875;28;20033;-76
2022/04/14 08:25:19;;;;;;;0.20;0.20;;;18.40;85.50;;;;;;5032525;28;20146;-76
2022/04/14 08:27:47;;;;;;;4.00;1.95;;;18.30;85.60;;;;;;5033329;28;20029;-76
2022/04/14 08:30:17;;;;;;;0.50;0.50;;;18.30;85.10;;;;;;5042194;28;20041;-76
2022/04/14 08:32:44;;;;;;;2.08;1.38;;;18.30;83.80;;;;;;5042143;28;20428;-76
2022/04/14 08:35:12;;;;;;;0.10;0.10;;;18.30;83.80;;;;;;5042093;28;20116;-76
2022/04/14 08:37:38;;;;;;;3.00;2.25;;;18.60;83.50;;;;;;5042590;28;20040;-76
2022/04/14 08:40:06;;;;;;;0.32;0.32;;;18.90;80.90;;;;;;5042712;28;20037;-76
2022/04/14 08:42:39;;;;;;;0.10;0.10;;;18.90;80.80;;;;;;5015461;28;20041;-76
2022/04/14 08:45:10;;;;;;;0.40;0.40;;;18.90;81.30;;;;;;5042630;28;20526;-76
2022/04/14 08:47:39;;;;;;;1.10;1.10;;;19.30;80.50;;;;;;5029658;28;20025;-76
2022/04/14 08:50:09;;;;;;;0.30;0.30;;;19.50;77.60;;;;;;5031559;28;20029;-76
2022/04/14 08:52:36;;;;;;;0.35;0.35;;;19.70;77.60;;;;;;5031349;28;20043;-76
2022/04/14 08:55:04;;;;;;;0.80;0.60;;;19.80;75.30;;;;;;5031068;28;20046;-76
2022/04/14 08:57:31;;;;;;;0.15;0.15;;;20.10;73.40;;;;;;5031959;28;20048;-76
2022/04/14 08:59:59;;;;;;;1.13;0.75;;;20.30;73.00;;;;;;5033880;28;20037;-76
2022/04/14 09:02:26;;;;;;;11.07;0.98;;;20.50;71.80;;;;;;5032586;28;20029;-76
2022/04/14 09:04:52;;;;;;;0.00;0.00;;;20.30;71.50;;;;;;5042367;28;20036;-76
2022/04/14 09:07:18;;;;;;;0.57;0.50;;;20.50;70.60;;;;;;5032995;28;20139;-76
2022/04/14 09:09:45;;;;;;;2.40;1.80;;;20.80;68.40;;;;;;5030468;28;20468;-76
2022/04/14 09:12:13;;;;;;;0.20;0.20;;;20.90;66.10;;;;;;5030818;28;20068;-76
2022/04/14 09:14:40;;;;;;;1.20;1.10;;;21.10;66.60;;;;;;5029114;28;20961;-77
2022/04/14 09:17:06;;;;;;;4.25;1.98;;;21.50;66.20;;;;;;5042476;28;20055;-76
2022/04/14 09:19:34;;;;;;;0.10;0.10;;;21.80;64.50;;;;;;5031189;28;20040;-76
2022/04/14 09:22:07;;;;;;;12.60;2.13;;;21.90;61.10;;;;;;5041956;28;20520;-76
2022/04/14 09:24:57;;;;;;;3.53;0.75;;;21.10;63.10;;;;;;5032597;28;20036;-76
2022/04/14 09:27:25;;;;;;;9.00;2.05;;;21.40;63.30;;;;;;5031307;28;20450;-77
2022/04/14 09:29:52;;;;;;;0.28;0.28;;;21.60;61.30;;;;;;5034167;28;20410;-76
2022/04/14 09:32:38;;;;;;;0.20;0.10;;;22.10;61.10;;;;;;5031783;28;20315;-76
2022/04/14 09:35:18;;;;;;;0.32;0.32;;;22.50;59.40;;;;;;5028881;28;20115;-76
2022/04/14 09:37:44;;;;;;;0.63;0.63;;;22.70;58.00;;;;;;5029730;28;20032;-76
2022/04/14 09:40:10;;;;;;;0.10;0.10;;;22.20;57.70;;;;;;5042139;28;20036;-76
2022/04/14 09:42:40;;;;;;;0.10;0.10;;;22.50;58.50;;;;;;5041569;28;20033;-76
2022/04/14 09:45:20;;;;;;;2.33;0.57;;;23.10;57.60;;;;;;5041506;28;20021;-75
2022/04/14 09:48:18;;;;;;;0.77;0.45;;;23.40;56.10;;;;;;5015045;28;20024;-77
2022/04/14 09:50:47;;;;;;;4.03;0.68;;;23.80;55.50;;;;;;5024586;28;20037;-77
2022/04/14 09:53:20;;;;;;;0.43;0.43;;;24.10;53.80;;;;;;5030863;28;20037;-77
2022/04/14 09:55:52;;;;;;;1.33;0.95;;;24.00;53.20;;;;;;5015101;28;20033;-77
2022/04/14 09:58:20;;;;;;;0.10;0.05;;;23.60;53.40;;;;;;5042176;28;20086;-75
2022/04/14 10:00:51;;;;;;;1.85;1.58;;;23.70;54.20;;;;;;5031203;28;20496;-75
2022/04/14 10:03:22;;;;;;;0.17;0.17;;;24.00;53.40;;;;;;5032693;28;20123;-76
2022/04/14 10:05:53;;;;;;;3.30;1.23;;;24.10;53.10;;;;;;5040687;28;20626;-76
2022/04/14 10:08:20;;;;;;;0.57;0.57;;;24.10;53.10;;;;;;5030949;28;20028;-76
2022/04/14 10:10:47;;;;;;;1.40;1.00;;;23.50;54.30;;;;;;5040934;28;20029;-76
2022/04/14 10:13:16;;;;;;;0.20;0.20;;;23.70;53.20;;;;;;5040813;28;20033;-75
2022/04/14 10:15:44;;;;;;;0.88;0.88;;;24.10;53.60;;;;;;5040495;28;20041;-75
2022/04/14 10:18:12;;;;;;;0.35;0.35;;;24.30;51.80;;;;;;5041430;28;20032;-75
2022/04/14 10:20:40;;;;;;;1.08;0.65;;;24.90;51.30;;;;;;5031426;28;20025;-75
2022/04/14 10:23:08;;;;;;;0.80;0.40;;;25.00;50.00;;;;;;5041474;28;20497;-75
2022/04/14 10:25:38;;;;;;;0.10;0.10;;;25.50;49.00;;;;;;5029958;28;20033;-76
2022/04/14 10:28:07;;;;;;;0.38;0.38;;;25.70;48.40;;;;;;5040462;28;20025;-76
2022/04/14 10:30:33;;;;;;;0.22;0.22;;;26.00;48.90;;;;;;5040334;28;20036;-76
2022/04/14 10:32:59;;;;;;;0.40;0.40;;;26.20;48.20;;;;;;5030131;28;20033;-76
2022/04/14 10:35:27;;;;;;;0.32;0.32;;;25.70;46.20;;;;;;5040218;28;20508;-76
2022/04/14 10:38:07;;;;;;;1.38;0.60;;;25.50;47.90;;;;;;5031623;28;20615;-76
2022/04/14 10:40:35;;;;;;;4.70;1.40;;;25.50;47.10;;;;;;5040151;28;20029;-76
2022/04/14 10:43:05;;;;;;;0.57;0.43;;;25.70;46.70;;;;;;5040941;28;20516;-76
2022/04/14 10:45:50;;;;;;;5.18;0.90;;;25.80;46.30;;;;;;5040382;28;20031;-76
2022/04/14 10:48:40;;;;;;;0.68;0.68;;;25.60;46.00;;;;;;5030101;28;20048;-76
2022/04/14 10:51:27;;;;;;;0.52;0.52;;;25.50;46.60;;;;;;5031935;28;20127;-76
2022/04/14 10:54:07;;;;;;;1.40;0.88;;;26.00;46.40;;;;;;5063110;23;1097612;-71
2022/04/14 10:56:44;;;;;;;1.30;1.02;;;26.00;44.90;;;;;;5021118;28;20079;-72
2022/04/14 10:59:14;;;;;;;0.00;0.00;;;26.10;44.70;;;;;;5020300;28;20404;-71
2022/04/14 11:01:46;;;;;;;0.47;0.45;;;26.30;45.20;;;;;;5020024;28;20396;-71
2022/04/14 11:04:27;;;;;;;5.65;3.67;;;26.10;45.60;;;;;;5020557;28;20075;-72
2022/04/14 11:07:01;;;;;;;0.67;0.63;;;25.20;44.30;;;;;;5020186;28;20412;-72
2022/04/14 11:09:45;;;;;;;1.38;0.88;;;25.40;45.30;;;;;;5019938;28;20508;-71
2022/04/14 11:12:16;;;;;;;2.72;1.05;;;25.20;45.90;;;;;;5004784;28;20075;-72
2022/04/14 11:14:46;;;;;;;0.17;0.17;;;25.30;45.00;;;;;;5024552;28;20038;-72
2022/04/14 11:17:36;;;;;;;1.08;0.98;;;26.20;45.90;;;;;;5027706;28;20025;-73
2022/04/14 11:20:15;;;;;;;0.08;0.08;;;26.40;44.10;;;;;;5024692;28;20033;-73
2022/04/14 11:23:06;;;;;;;0.00;0.00;;;25.90;44.10;;;;;;5022491;28;20037;-72
2022/04/14 11:25:43;;;;;;;0.00;0.00;;;26.10;44.80;;;;;;5023274;28;20025;-72
2022/04/14 11:28:30;;;;;;;0.73;0.32;;;26.60;44.60;;;;;;5005978;28;20038;-72
2022/04/14 11:31:22;;;;;;;0.00;0.00;;;26.70;43.60;;;;;;5005625;28;20071;-73
2022/04/14 11:33:50;;;;;;;1.02;1.02;;;26.70;43.10;;;;;;5024261;28;20444;-72
2022/04/14 11:36:17;;;;;;;1.33;0.52;;;26.60;43.20;;;;;;5024147;28;20029;-72
2022/04/14 11:38:53;;;;;;;8.32;6.15;;;26.30;43.40;;;;;;5022492;28;20480;-72
2022/04/14 11:41:44;;;;;;;4.20;2.28;;;26.00;44.40;;;;;;5023133;28;20444;-71
2022/04/14 11:44:11;;;;;;;7.22;2.10;;;25.50;44.20;;;;;;4990935;28;20033;-73
2022/04/14 11:46:40;;;;;;;0.40;0.40;;;26.00;44.50;;;;;;5023332;28;20029;-72
2022/04/14 11:49:09;;;;;;;0.10;0.10;;;26.30;43.70;;;;;;5024403;28;20025;-72
2022/04/14 11:51:49;;;;;;;0.00;0.00;;;26.80;43.00;;;;;;5005624;28;20033;-72
2022/04/14 11:54:27;;;;;;;0.40;0.40;;;26.60;41.00;;;;;;5023098;28;20425;-72
2022/04/14 11:56:58;;;;;;;0.35;0.35;;;26.40;40.50;;;;;;5022520;28;20036;-73
2022/04/14 11:59:35;;;;;;;0.35;0.35;;;26.40;41.20;;;;;;5023322;28;20560;-73
2022/04/14 12:02:09;;;;;;;2.85;0.70;;;26.30;41.10;;;;;;5022137;28;20033;-72
2022/04/14 12:04:36;;;;;;;9.63;1.95;;;25.10;42.40;;;;;;5021949;28;20046;-74
2022/04/14 12:07:02;;;;;;;0.05;0.05;;;25.30;43.10;;;;;;5004704;28;20560;-73
2022/04/14 12:09:28;;;;;;;0.00;0.00;;;25.70;43.00;;;;;;5023425;28;20669;-74
2022/04/14 12:11:54;;;;;;;0.45;0.45;;;26.00;42.70;;;;;;5023382;28;20035;-73
2022/04/14 12:14:21;;;;;;;0.10;0.10;;;25.90;42.20;;;;;;5023417;28;20172;-74
2022/04/14 12:16:53;;;;;;;8.18;0.35;;;25.70;42.20;;;;;;5004153;28;20033;-74
2022/04/14 12:19:20;;;;;;;0.88;0.15;;;25.50;42.10;;;;;;5023324;28;20037;-73
2022/04/14 12:22:02;;;;;;;1.55;0.43;;;25.70;43.10;;;;;;5022739;28;20034;-74
2022/04/14 12:24:29;;;;;;;1.52;1.42;;;25.70;42.80;;;;;;5022399;28;20033;-74
2022/04/14 12:26:56;;;;;;;0.10;0.10;;;25.30;43.20;;;;;;5021997;28;20112;-74
2022/04/14 12:29:22;;;;;;;6.38;0.30;;;25.30;43.70;;;;;;5021629;28;20052;-74
2022/04/14 12:31:49;;;;;;;0.95;0.45;;;25.40;43.90;;;;;;5022795;28;20027;-74
2022/04/14 12:34:15;;;;;;;7.53;0.63;;;25.40;43.00;;;;;;5021892;28;20033;-74
2022/04/14 12:36:41;;;;;;;0.00;0.00;;;25.40;42.80;;;;;;5022466;28;20481;-74
2022/04/14 12:39:18;;;;;;;0.00;0.00;;;25.60;42.90;;;;;;5022590;28;20523;-74
2022/04/14 12:41:44;;;;;;;0.00;0.00;;;25.20;41.70;;;;;;5022512;28;20099;-74
2022/04/14 12:44:20;;;;;;;4.90;0.93;;;25.20;41.70;;;;;;5003757;28;20033;-74
2022/04/14 12:46:50;;;;;;;0.17;0.17;;;25.20;42.10;;;;;;5022548;28;20264;-74
2022/04/14 12:49:22;;;;;;;0.38;0.38;;;25.30;41.90;;;;;;4987574;28;20056;-74